Latest Weather Observations for Braidwood

IDN60901

Issued at 11:01 pm EST Saturday 23 July 2016 (issued every 10 minutes, with the page automatically refreshed every 10 minutes)

About weather observations | Map of Canberra area stations | Latest observations for Canberra area | Other Formats
Station Details ID: 069132 Name: BRAIDWOOD RACECOURSE AWS Lat: -35.43 Lon: 149.78 Height: 665.2 m
Data from the previous 72 hours. | See also: Recent months at Braidwood
Date/Time
EST
Temp
°C
App
Temp
°C
Dew
Point
°C
Rel
Hum
%
Delta-T
°C
Wind Press
QNH
hPa
Press
MSL
hPa
Rain since
9am
mm
Dir  Spd
km/h
Gust
km/h
Spd
kts
Gust
kts
23/11:00pm 2.3 -1.8 -3.4 66 2.0 NNW 9 17 5 9 1010.4 1011.4 0.0
23/10:30pm 2.6 -1.1 -3.1 66 2.0 NNW 7 9 4 5 1010.5 1011.5 0.0
23/10:00pm 2.6 -0.5 -2.7 68 1.9 N 4 7 2 4 1010.2 1011.2 0.0
23/09:30pm 3.5 -0.9 -2.7 64 2.3 NW 11 20 6 11 1009.9 1010.8 0.0
23/09:00pm 3.2 -1.2 -2.7 65 2.2 WNW 11 17 6 9 1009.8 1010.7 0.0
23/08:30pm 4.2 0.0 -4.0 55 2.9 NW 9 19 5 10 1009.6 1010.5 0.0
23/08:00pm 4.5 0.6 -4.2 53 3.1 WNW 7 15 4 8 1009.1 1010.1 0.0
23/07:30pm 4.4 -0.5 -3.4 57 2.8 WNW 13 24 7 13 1008.6 1009.5 0.0
23/07:00pm 4.9 -1.1 -2.7 58 2.8 WNW 19 35 10 19 1008.1 1009.0 0.0
23/06:30pm 5.0 -1.2 -3.0 56 3.0 WNW 20 37 11 20 1007.4 1008.3 0.0
23/06:00pm 5.2 -2.9 -2.8 56 3.0 WNW 30 43 16 23 1006.4 1007.3 0.0
23/05:30pm 5.4 -1.6 -3.1 54 3.1 NW 24 33 13 18 1006.3 1007.1 0.0
23/05:00pm 6.1 -0.8 -3.0 52 3.4 NW 24 43 13 23 1005.5 1006.4 0.0
23/04:30pm 6.8 -1.2 -2.4 52 3.5 WNW 30 41 16 22 1004.6 1005.4 0.0
23/04:23pm 7.0 -1.5 -1.9 53 3.5 WNW 33 54 18 29 1004.3 1005.2 0.0
23/04:00pm 7.2 -2.3 -0.7 57 3.2 WNW 39 52 21 28 1004.1 1005.0 0.0
23/03:33pm 7.9 0.4 -1.3 52 3.7 WNW 28 46 15 25 1003.9 1004.8 0.0
23/03:30pm 8.1 1.1 -0.6 54 3.5 NW 26 48 14 26 1003.9 1004.8 0.0
23/03:21pm 8.2 0.7 -1.6 50 3.9 NW 28 46 15 25 1003.9 1004.8 0.0
23/03:00pm 8.2 1.8 -1.6 50 3.9 NW 22 41 12 22 1003.9 1004.8 0.0
23/02:35pm 8.3 0.8 -1.2 51 3.8 WNW 28 48 15 26 1003.2 1004.0 0.0
23/02:30pm 8.5 1.6 0.0 55 3.5 WNW 26 46 14 25 1003.3 1004.1 0.0
23/02:00pm 8.3 -0.7 -0.2 55 3.5 WNW 37 63 20 34 1002.5 1003.4 0.0
23/01:32pm 8.5 -1.3 -0.5 53 3.7 NW 41 61 22 33 1002.2 1003.0 0.0
23/01:30pm 8.6 -1.6 -0.2 54 3.6 NW 43 61 23 33 1002.1 1002.9 0.0
23/01:00pm 9.0 0.2 1.4 59 3.3 WNW 37 57 20 31 1001.8 1002.6 0.0
23/12:39pm 8.3 1.2 1.2 61 3.0 NW 28 48 15 26 1001.8 1002.6 0.0
23/12:30pm 8.3 0.9 2.1 65 2.7 NW 30 44 16 24 1001.9 1002.7 0.0
23/12:09pm 8.0 1.0 2.0 66 2.6 NW 28 46 15 25 1001.8 1002.6 0.0
23/12:00pm 8.1 1.6 2.8 69 2.3 NW 26 43 14 23 1001.9 1002.7 0.0
23/11:34am 7.8 0.7 1.6 65 2.6 NW 28 54 15 29 1001.7 1002.5 0.0
23/11:30am 8.1 2.0 2.6 68 2.4 NW 24 44 13 24 1001.8 1002.6 0.0
23/11:04am 7.9 0.8 1.3 63 2.8 NW 28 50 15 27 1001.9 1002.7 0.0
23/11:00am 7.8 1.6 2.1 67 2.5 NW 24 50 13 27 1001.9 1002.7 0.0
23/10:30am 7.3 1.1 2.0 69 2.3 NW 24 39 13 21 1001.8 1002.6 0.0
23/10:09am 7.1 0.0 1.6 68 2.3 NW 28 50 15 27 1001.7 1002.5 0.0
23/10:00am 6.6 0.7 1.7 71 2.1 NW 22 37 12 20 1001.6 1002.4 0.0
23/09:39am 5.5 -1.6 1.6 76 1.6 NW 28 46 15 25 1001.5 1002.3 0.0
23/09:30am 5.7 -0.6 1.6 75 1.7 NW 24 39 13 21 1001.8 1002.6 0.0
23/09:00am 6.2 -0.1 1.3 71 2.1 NW 24 37 13 20 1001.4 1002.2 13.4
23/08:30am 5.6 -2.0 0.8 71 2.0 WNW 30 44 16 24 1001.2 1002.1 13.4
23/08:00am 5.6 -0.4 1.0 72 1.9 NW 22 35 12 19 1000.6 1001.4 13.4
23/07:30am 5.5 -1.7 0.7 71 2.0 NW 28 52 15 28 999.6 1000.4 13.4
23/07:00am 5.1 -2.1 0.7 73 1.8 NW 28 54 15 29 998.8 999.6 13.4
23/06:35am 5.5 -2.7 0.3 69 2.1 WNW 33 52 18 28 998.5 999.2 13.4
23/06:30am 5.5 -2.7 0.3 69 2.1 NW 33 48 18 26 998.3 999.0 13.4
23/06:00am 5.7 -2.8 0.7 70 2.1 NW 35 54 19 29 997.7 998.5 13.4
23/05:30am 5.8 -3.8 1.0 71 2.0 NW 41 61 22 33 997.1 997.8 13.4
23/05:00am 7.0 -1.6 0.5 63 2.7 WNW 35 61 19 33 996.8 997.5 13.4
23/04:30am 7.1 -0.7 2.0 70 2.2 WNW 32 63 17 34 996.7 997.4 13.4
23/04:00am 7.7 -0.2 2.4 69 2.3 WNW 33 52 18 28 996.2 997.0 13.0
23/03:30am 8.6 0.7 2.4 65 2.7 NW 33 59 18 32 996.1 996.9 13.0
23/03:14am 8.6 1.0 2.6 66 2.6 NW 32 54 17 29 996.2 997.0 13.0
23/03:00am 8.5 2.1 3.4 70 2.3 NW 26 41 14 22 996.4 997.2 13.0
23/02:30am 8.2 2.0 4.2 76 1.8 NW 26 43 14 23 996.9 997.6 13.0
23/02:00am 9.1 -0.4 3.7 69 2.5 WNW 43 61 23 33 997.0 997.7 13.0
23/01:44am 9.6 1.1 5.0 73 2.2 WNW 39 69 21 37 996.6 997.3 13.0
23/01:30am 9.8 3.1 5.6 75 2.0 NW 30 48 16 26 996.3 997.1 13.0
23/01:25am 9.7 3.4 5.5 75 2.0 NW 28 50 15 27 996.2 997.0 13.0
23/01:00am 10.2 4.7 3.9 65 2.9 NW 22 39 12 21 996.4 997.2 12.8
23/12:33am 10.4 3.3 3.7 63 3.1 WNW 30 50 16 27 996.9 997.6 12.8
23/12:30am 10.5 2.9 3.8 63 3.1 WNW 33 50 18 27 996.8 997.5 12.8
23/12:00am 10.9 2.9 3.9 62 3.3 WNW 35 50 19 27 997.0 997.7 12.8
 
Date/Time
EST
Temp
°C
App
Temp
°C
Dew
Point
°C
Rel
Hum
%
Delta-T
°C
Wind Press
QNH
hPa
Press
MSL
hPa
Rain since
9am
mm
Dir  Spd
km/h
Gust
km/h
Spd
kts
Gust
kts
22/11:35pm 11.1 3.2 4.6 64 3.1 WNW 35 56 19 30 997.2 997.9 12.8
22/11:30pm 11.4 2.8 4.6 63 3.2 WNW 39 56 21 30 997.3 998.0 12.8
22/11:02pm 12.1 4.8 5.3 63 3.3 WNW 33 54 18 29 997.3 998.0 12.8
22/11:00pm 12.0 4.7 5.4 64 3.2 WNW 33 46 18 25 997.3 998.0 12.8
22/10:30pm 12.6 5.4 6.0 64 3.2 WNW 33 50 18 27 997.3 998.0 12.8
22/10:11pm 12.9 5.8 6.5 65 3.2 WNW 33 52 18 28 997.5 998.3 12.8
22/10:00pm 13.2 5.9 7.0 66 3.1 WNW 35 50 19 27 997.5 998.3 12.8
22/09:31pm 13.7 6.6 8.1 69 2.9 WNW 35 57 19 31 997.4 998.2 12.8
22/09:30pm 13.6 6.5 8.0 69 2.9 WNW 35 52 19 28 997.5 998.3 12.8
22/09:11pm 14.6 9.1 9.0 69 3.0 WNW 28 48 15 26 997.3 998.0 12.8
22/09:00pm 14.5 10.0 9.9 74 2.5 WNW 24 35 13 19 997.5 998.3 12.8
22/08:46pm 14.4 9.2 10.2 76 2.3 WNW 28 46 15 25 997.6 998.4 12.8
22/08:30pm 15.2 9.0 10.0 71 2.8 WNW 33 50 18 27 997.6 998.4 12.8
22/08:00pm 15.3 9.2 10.5 73 2.6 WNW 33 52 18 28 997.7 998.5 12.8
22/07:53pm 15.1 10.0 10.7 75 2.4 WNW 28 52 15 28 997.6 998.4 12.8
22/07:30pm 15.0 10.8 11.0 77 2.2 WNW 24 39 13 21 997.5 998.3 12.8
22/07:02pm 15.2 10.4 11.8 80 1.9 WNW 28 46 15 25 997.3 998.0 12.8
22/07:00pm 15.0 10.7 12.0 82 1.7 WNW 26 46 14 25 997.5 998.3 12.8
22/06:30pm 14.6 11.6 12.5 87 1.2 NW 20 35 11 19 997.2 997.9 12.8
22/06:00pm 14.5 11.1 12.5 88 1.1 WNW 22 35 12 19 997.7 998.5 12.4
22/05:30pm 14.8 11.6 13.2 90 0.9 NW 22 37 12 20 997.3 998.0 10.0
22/05:00pm 14.7 10.1 13.4 92 0.8 NW 30 57 16 31 997.3 998.0 9.2
22/04:52pm 14.7 10.5 13.4 92 0.7 NW 28 57 15 31 997.0 997.7 7.2
22/04:30pm 14.7 10.4 13.2 91 0.9 NW 28 44 15 24 996.8 997.5 3.2
22/04:00pm 16.2 11.3 12.6 79 2.1 NW 30 57 16 31 997.0 997.7 0.8
22/03:31pm 16.0 11.5 12.7 81 1.9 NW 28 48 15 26 997.1 997.8 0.8
22/03:30pm 16.0 11.9 12.6 80 1.9 NW 26 48 14 26 997.1 997.8 0.8
22/03:05pm 16.0 11.5 12.7 81 1.9 NW 28 46 15 25 997.6 998.4 0.8
22/03:00pm 15.9 12.2 12.8 82 1.8 NW 24 46 13 25 997.8 998.6 0.8
22/02:30pm 16.1 11.1 12.3 78 2.2 NW 30 50 16 27 999.0 999.8 0.8
22/02:00pm 16.4 10.9 12.4 77 2.3 NW 33 56 18 30 999.4 1000.2 0.8
22/01:30pm 15.8 10.6 12.9 83 1.7 NW 32 52 17 28 1000.0 1000.8 0.8
22/01:03pm 15.2 10.9 13.1 87 1.2 NW 28 48 15 26 1001.0 1001.8 0.4
22/01:00pm 15.3 11.0 13.2 87 1.2 NW 28 44 15 24 1001.1 1001.9 0.4
22/12:30pm 16.4 10.9 12.6 78 2.2 NW 33 56 18 30 1001.7 1002.5 0.0
22/12:00pm 16.9 12.0 12.6 76 2.5 NW 30 54 16 29 1002.2 1003.0 0.0
22/11:35am 17.1 12.0 13.0 77 2.4 NW 32 50 17 27 1002.7 1003.6 0.0
22/11:30am 16.5 11.0 12.3 76 2.4 NW 33 50 18 27 1002.4 1003.2 0.0
22/11:02am 16.1 10.2 12.3 78 2.2 NW 35 59 19 32 1003.5 1004.3 0.0
22/11:00am 16.1 10.2 12.3 78 2.2 NW 35 54 19 29 1003.8 1004.7 0.0
22/10:30am 14.6 9.7 12.6 88 1.1 NW 30 56 16 30 1004.6 1005.4 0.0
22/10:07am 15.1 10.5 12.2 83 1.6 NW 28 46 15 25 1004.9 1005.7 0.0
22/10:00am 15.0 10.8 12.3 84 1.5 NW 26 43 14 23 1004.9 1005.7 0.0
22/09:30am 14.3 11.2 11.6 84 1.5 NW 19 35 10 19 1005.7 1006.6 0.0
22/09:00am 13.7 11.7 11.6 87 1.2 NNW 13 26 7 14 1006.2 1007.0 0.0
22/08:30am 13.1 10.3 11.2 88 1.0 N 17 37 9 20 1006.7 1007.6 0.0
22/08:00am 12.8 9.5 11.0 89 1.0 NNW 19 35 10 19 1006.7 1007.6 0.0
22/07:30am 12.2 8.3 10.8 91 0.8 NW 22 35 12 19 1006.7 1007.6 0.0
22/07:00am 12.1 8.5 10.5 90 0.9 NNW 20 35 11 19 1007.0 1007.9 0.0
22/06:30am 11.8 8.4 10.4 91 0.7 NW 19 32 10 17 1007.9 1008.8 0.0
22/06:00am 11.5 8.7 10.1 91 0.7 NNW 15 33 8 18 1008.3 1009.2 0.0
22/05:30am 11.4 9.0 10.1 92 0.7 NNW 13 22 7 12 1008.8 1009.8 0.0
22/05:00am 11.3 9.2 9.9 91 0.7 NNW 11 19 6 10 1009.4 1010.3 0.0
22/04:30am 11.1 9.0 9.7 91 0.7 NNW 11 19 6 10 1010.3 1011.3 0.0
22/04:00am 10.9 8.7 9.3 90 0.8 NW 11 19 6 10 1011.1 1012.0 0.0
22/03:30am 11.1 7.8 9.4 89 0.9 NW 17 24 9 13 1011.8 1012.8 0.0
22/03:00am 11.4 6.2 8.8 84 1.3 WNW 26 35 14 19 1012.0 1013.0 0.0
22/02:30am 11.4 5.0 8.6 83 1.4 WNW 32 41 17 22 1011.8 1012.8 0.0
22/02:00am 11.1 6.0 9.2 88 1.0 NW 26 39 14 21 1012.1 1013.1 0.0
22/01:30am 10.9 7.0 8.7 86 1.1 NW 19 26 10 14 1012.9 1013.9 0.0
22/01:00am 10.7 8.7 8.8 88 1.0 NNW 9 17 5 9 1013.3 1014.3 0.0
22/12:30am 10.3 9.6 8.6 89 0.9 N 2 11 1 6 1013.2 1014.2 0.0
22/12:00am 10.5 9.0 8.4 87 1.1 NNE 6 9 3 5 1013.7 1014.7 0.0
 
Date/Time
EST
Temp
°C
App
Temp
°C
Dew
Point
°C
Rel
Hum
%
Delta-T
°C
Wind Press
QNH
hPa
Press
MSL
hPa
Rain since
9am
mm
Dir  Spd
km/h
Gust
km/h
Spd
kts
Gust
kts
21/11:30pm 11.4 9.6 7.9 79 1.8 NNW 7 13 4 7 1014.3 1015.3 0.0
21/11:00pm 12.1 7.2 8.4 78 1.9 WNW 24 33 13 18 1014.0 1015.1 0.0
21/10:30pm 11.6 9.0 9.3 86 1.2 NW 13 28 7 15 1014.6 1015.6 0.0
21/10:00pm 9.9 8.5 8.7 92 0.6 N 6 11 3 6 1014.7 1015.7 0.0
21/09:30pm 10.3 9.7 8.9 91 0.7 N 2 6 1 3 1015.2 1016.3 0.0
21/09:00pm 10.4 9.4 8.7 89 0.9 N 4 7 2 4 1015.6 1016.7 0.0
21/08:30pm 10.5 8.4 8.4 87 1.1 ENE 9 13 5 7 1015.8 1016.8 0.0
21/08:00pm 9.9 8.4 8.3 90 0.8 ENE 6 11 3 6 1015.9 1016.9 0.0
21/07:30pm 10.4 9.7 8.5 88 1.0 W 2 7 1 4 1016.0 1017.0 0.0
21/07:00pm 10.5 9.1 8.8 89 0.9 NNE 6 9 3 5 1015.5 1016.6 0.0
21/06:30pm 10.3 9.9 8.1 86 1.1 CALM 0 0 0 0 1015.5 1016.6 0.0
21/06:00pm 11.1 10.8 8.5 84 1.3 CALM 0 0 0 0 1015.4 1016.5 0.0
21/05:30pm 11.3 10.9 8.2 81 1.6 CALM 0 0 0 0 1015.3 1016.4 0.0
21/05:00pm 12.8 11.3 8.5 75 2.2 NNW 6 11 3 6 1015.2 1016.3 0.0
21/04:30pm 14.2 12.3 9.0 71 2.7 NW 9 15 5 8 1015.2 1016.3 0.0
21/04:00pm 14.0 12.8 9.4 74 2.4 NW 6 11 3 6 1015.5 1016.6 0.0
21/03:30pm 14.0 12.5 9.0 72 2.6 NW 7 11 4 6 1015.4 1016.5 0.0
21/03:00pm 14.7 12.9 9.3 70 2.9 NW 9 15 5 8 1015.8 1016.8 0.0
21/02:30pm 14.9 13.6 9.9 72 2.7 NNW 7 11 4 6 1015.9 1016.9 0.0
21/02:00pm 14.5 13.1 9.5 72 2.7 NNW 7 11 4 6 1016.3 1017.3 0.0
21/01:30pm 14.4 12.5 9.0 70 2.8 NNW 9 19 5 10 1016.5 1017.6 0.0
21/01:00pm 13.9 12.3 10.1 78 2.0 NNW 9 17 5 9 1017.0 1018.1 0.0
21/12:30pm 12.9 11.1 9.5 80 1.8 NNW 9 17 5 9 1017.7 1018.7 0.0
21/12:00pm 12.5 11.6 10.6 88 1.0 N 6 11 3 6 1018.3 1019.4 0.0
21/11:30am 11.7 10.4 9.8 88 1.0 N 7 15 4 8 1019.1 1020.2 0.0
21/11:00am 11.6 10.4 9.7 88 1.0 NNW 6 9 3 5 1019.4 1020.5 0.0
21/10:30am 11.2 10.1 10.0 92 0.6 N 6 9 3 5 1020.0 1021.1 0.0
21/10:00am 10.7 9.9 9.5 92 0.6 NNW 4 9 2 5 1020.3 1021.5 0.0
21/09:30am 10.1 9.1 9.0 93 0.6 NNW 4 6 2 3 1020.4 1021.6 0.0
21/09:00am 9.8 9.2 9.0 95 0.4 NW 2 6 1 3 1020.4 1021.6 1.2
21/08:30am 9.4 9.1 8.8 96 0.3 CALM 0 0 0 0 1020.6 1021.7 1.2
21/08:00am 9.2 8.9 8.7 97 0.3 CALM 0 0 0 0 1020.6 1021.7 1.2
21/07:30am 8.7 8.3 8.1 96 0.3 CALM 0 0 0 0 1020.7 1021.8 1.2
21/07:00am 8.4 7.9 7.8 96 0.3 CALM 0 0 0 0 1020.4 1021.6 1.2
21/06:30am 8.8 8.4 8.2 96 0.3 CALM 0 0 0 0 1020.3 1021.5 1.2
21/06:00am 8.9 8.5 8.3 96 0.3 CALM 0 0 0 0 1020.2 1021.3 1.2
21/05:30am 8.9 8.5 8.3 96 0.3 CALM 0 0 0 0 1020.2 1021.3 1.2
21/05:00am 8.9 7.8 8.3 96 0.3 W 4 6 2 3 1020.3 1021.5 1.2
21/04:30am 8.9 8.5 8.3 96 0.3 CALM 0 4 0 2 1020.2 1021.3 1.2
21/04:00am 8.8 8.4 8.2 96 0.3 CALM 0 0 0 0 1020.4 1021.6 1.2
21/03:30am 8.9 7.4 8.3 96 0.3 SSE 6 6 3 3 1020.4 1021.6 1.2
21/03:00am 8.9 7.8 8.3 96 0.3 SSE 4 4 2 2 1020.8 1021.9 1.2
21/02:30am 8.9 7.8 8.3 96 0.3 SSW 4 4 2 2 1021.1 1022.2 1.2
21/02:00am 8.9 8.1 8.3 96 0.3 S 2 6 1 3 1021.2 1022.3 1.2
21/01:30am 8.8 7.6 8.2 96 0.3 SW 4 6 2 3 1021.4 1022.5 1.2
21/01:00am 8.8 8.4 8.2 96 0.3 CALM 0 2 0 1 1021.7 1022.9 1.2
21/12:30am 8.7 7.2 8.3 97 0.2 SSW 6 9 3 5 1021.9 1023.1 1.2
21/12:00am 8.5 7.3 8.1 97 0.2 SSW 4 6 2 3 1022.2 1023.3 1.2
 
Date/Time
EST
Temp
°C
App
Temp
°C
Dew
Point
°C
Rel
Hum
%
Delta-T
°C
Wind Press
QNH
hPa
Press
MSL
hPa
Rain since
9am
mm
Dir  Spd
km/h
Gust
km/h
Spd
kts
Gust
kts
20/11:30pm 8.5 6.7 8.1 97 0.2 S 7 9 4 5 1021.9 1023.1 1.2

Latest Capital City Observations: Canberra | Sydney | Melbourne | Brisbane | Adelaide | Perth | Hobart | Darwin

Other Formats:

Comma delimited format used in spreadsheet applications
http://www.bom.gov.au/fwo/IDN60903/IDN60903.94927.axf

JavaScript Object Notation format (JSON) in row-major order
http://www.bom.gov.au/fwo/IDN60903/IDN60903.94927.json